sensor_id;sensor_type;location;lat;lon;timestamp;temperature;humidity
15107;DHT22;7654;45.308;-75.096;2022-12-07T00:02:04;2.60;99.90
15107;DHT22;7654;45.308;-75.096;2022-12-07T00:04:34;2.60;99.90
15107;DHT22;7654;45.308;-75.096;2022-12-07T00:07:04;2.60;99.90
15107;DHT22;7654;45.308;-75.096;2022-12-07T00:09:34;2.60;99.90
15107;DHT22;7654;45.308;-75.096;2022-12-07T00:12:05;2.60;99.90
15107;DHT22;7654;45.308;-75.096;2022-12-07T00:14:37;2.60;99.90
15107;DHT22;7654;45.308;-75.096;2022-12-07T00:17:07;2.60;99.90
15107;DHT22;7654;45.308;-75.096;2022-12-07T00:19:37;2.60;99.90
15107;DHT22;7654;45.308;-75.096;2022-12-07T00:22:07;2.70;99.90
15107;DHT22;7654;45.308;-75.096;2022-12-07T00:24:37;2.60;99.90
15107;DHT22;7654;45.308;-75.096;2022-12-07T00:27:07;2.60;99.90
15107;DHT22;7654;45.308;-75.096;2022-12-07T00:29:39;2.60;99.90
15107;DHT22;7654;45.308;-75.096;2022-12-07T00:32:09;2.60;99.90
15107;DHT22;7654;45.308;-75.096;2022-12-07T00:34:40;2.60;99.90
15107;DHT22;7654;45.308;-75.096;2022-12-07T00:37:10;2.60;99.90
15107;DHT22;7654;45.308;-75.096;2022-12-07T00:39:41;2.60;99.90
15107;DHT22;7654;45.308;-75.096;2022-12-07T00:42:11;2.70;99.90
15107;DHT22;7654;45.308;-75.096;2022-12-07T00:44:44;2.60;99.90
15107;DHT22;7654;45.308;-75.096;2022-12-07T00:47:14;2.60;99.90
15107;DHT22;7654;45.308;-75.096;2022-12-07T00:49:44;2.60;99.90
15107;DHT22;7654;45.308;-75.096;2022-12-07T00:52:14;2.60;99.90
15107;DHT22;7654;45.308;-75.096;2022-12-07T00:54:44;2.70;99.90
15107;DHT22;7654;45.308;-75.096;2022-12-07T00:57:14;2.70;99.90
15107;DHT22;7654;45.308;-75.096;2022-12-07T00:59:46;2.70;99.90
15107;DHT22;7654;45.308;-75.096;2022-12-07T01:02:18;2.60;99.90
15107;DHT22;7654;45.308;-75.096;2022-12-07T01:04:52;2.60;99.90
15107;DHT22;7654;45.308;-75.096;2022-12-07T01:07:23;2.60;99.90
15107;DHT22;7654;45.308;-75.096;2022-12-07T01:09:54;2.60;99.90
15107;DHT22;7654;45.308;-75.096;2022-12-07T01:12:25;2.60;99.90
15107;DHT22;7654;45.308;-75.096;2022-12-07T01:14:57;2.60;99.90
15107;DHT22;7654;45.308;-75.096;2022-12-07T01:17:29;2.70;99.90
15107;DHT22;7654;45.308;-75.096;2022-12-07T01:19:59;2.60;99.90
15107;DHT22;7654;45.308;-75.096;2022-12-07T01:22:32;2.70;99.90
15107;DHT22;7654;45.308;-75.096;2022-12-07T01:25:07;2.70;99.90
15107;DHT22;7654;45.308;-75.096;2022-12-07T01:27:38;2.70;99.90
15107;DHT22;7654;45.308;-75.096;2022-12-07T01:30:13;2.60;99.90
15107;DHT22;7654;45.308;-75.096;2022-12-07T01:32:46;2.70;99.90
15107;DHT22;7654;45.308;-75.096;2022-12-07T01:35:23;2.70;99.90
15107;DHT22;7654;45.308;-75.096;2022-12-07T01:37:53;2.70;99.90
15107;DHT22;7654;45.308;-75.096;2022-12-07T01:40:23;2.70;99.90
15107;DHT22;7654;45.308;-75.096;2022-12-07T01:42:53;2.70;99.90
15107;DHT22;7654;45.308;-75.096;2022-12-07T01:45:46;2.70;99.90
15107;DHT22;7654;45.308;-75.096;2022-12-07T01:48:18;2.70;99.90
15107;DHT22;7654;45.308;-75.096;2022-12-07T01:50:51;2.70;99.90
15107;DHT22;7654;45.308;-75.096;2022-12-07T01:53:25;2.70;99.90
15107;DHT22;7654;45.308;-75.096;2022-12-07T01:55:57;2.70;99.90
15107;DHT22;7654;45.308;-75.096;2022-12-07T01:58:28;2.70;99.90
15107;DHT22;7654;45.308;-75.096;2022-12-07T02:01:00;2.70;99.90
15107;DHT22;7654;45.308;-75.096;2022-12-07T02:03:35;2.70;99.90
15107;DHT22;7654;45.308;-75.096;2022-12-07T02:06:08;2.70;99.90
15107;DHT22;7654;45.308;-75.096;2022-12-07T02:08:40;2.70;99.90
15107;DHT22;7654;45.308;-75.096;2022-12-07T02:11:12;2.70;99.90
15107;DHT22;7654;45.308;-75.096;2022-12-07T02:13:45;2.70;99.90
15107;DHT22;7654;45.308;-75.096;2022-12-07T02:16:28;2.80;99.90
15107;DHT22;7654;45.308;-75.096;2022-12-07T02:19:20;2.80;99.90
15107;DHT22;7654;45.308;-75.096;2022-12-07T02:21:59;2.80;99.90
15107;DHT22;7654;45.308;-75.096;2022-12-07T02:24:46;2.80;99.90
15107;DHT22;7654;45.308;-75.096;2022-12-07T02:27:44;2.80;99.90
15107;DHT22;7654;45.308;-75.096;2022-12-07T02:30:19;2.80;99.90
15107;DHT22;7654;45.308;-75.096;2022-12-07T02:32:57;2.80;99.90
15107;DHT22;7654;45.308;-75.096;2022-12-07T02:35:31;2.80;99.90
15107;DHT22;7654;45.308;-75.096;2022-12-07T02:38:12;2.80;99.90
15107;DHT22;7654;45.308;-75.096;2022-12-07T02:40:49;2.90;99.90
15107;DHT22;7654;45.308;-75.096;2022-12-07T02:43:25;2.80;99.90
15107;DHT22;7654;45.308;-75.096;2022-12-07T02:46:03;2.80;99.90
15107;DHT22;7654;45.308;-75.096;2022-12-07T02:48:38;2.90;99.90
15107;DHT22;7654;45.308;-75.096;2022-12-07T02:51:09;2.90;99.90
15107;DHT22;7654;45.308;-75.096;2022-12-07T02:53:43;2.90;99.90
15107;DHT22;7654;45.308;-75.096;2022-12-07T02:56:23;2.90;99.90
15107;DHT22;7654;45.308;-75.096;2022-12-07T02:59:06;2.90;99.90
15107;DHT22;7654;45.308;-75.096;2022-12-07T03:01:50;2.90;99.90
15107;DHT22;7654;45.308;-75.096;2022-12-07T03:04:33;2.90;99.90
15107;DHT22;7654;45.308;-75.096;2022-12-07T03:07:21;2.90;99.90
15107;DHT22;7654;45.308;-75.096;2022-12-07T03:10:01;2.90;99.90
15107;DHT22;7654;45.308;-75.096;2022-12-07T03:12:39;3.00;99.90
15107;DHT22;7654;45.308;-75.096;2022-12-07T03:15:18;3.00;99.90
15107;DHT22;7654;45.308;-75.096;2022-12-07T03:17:51;3.00;99.90
15107;DHT22;7654;45.308;-75.096;2022-12-07T03:20:26;3.00;99.90
15107;DHT22;7654;45.308;-75.096;2022-12-07T03:22:59;3.00;99.90
15107;DHT22;7654;45.308;-75.096;2022-12-07T03:25:30;3.00;99.90
15107;DHT22;7654;45.308;-75.096;2022-12-07T03:28:04;3.10;99.90
15107;DHT22;7654;45.308;-75.096;2022-12-07T03:30:38;3.00;99.90
15107;DHT22;7654;45.308;-75.096;2022-12-07T03:33:15;3.00;99.90
15107;DHT22;7654;45.308;-75.096;2022-12-07T03:35:51;3.00;99.90
15107;DHT22;7654;45.308;-75.096;2022-12-07T03:38:25;3.00;99.90
15107;DHT22;7654;45.308;-75.096;2022-12-07T03:41:00;3.00;99.90
15107;DHT22;7654;45.308;-75.096;2022-12-07T03:43:31;3.10;99.90
15107;DHT22;7654;45.308;-75.096;2022-12-07T03:46:09;3.00;99.90
15107;DHT22;7654;45.308;-75.096;2022-12-07T03:48:54;3.10;99.90
15107;DHT22;7654;45.308;-75.096;2022-12-07T03:51:31;3.10;99.90
15107;DHT22;7654;45.308;-75.096;2022-12-07T03:54:09;3.10;99.90
15107;DHT22;7654;45.308;-75.096;2022-12-07T03:56:41;3.10;99.90
15107;DHT22;7654;45.308;-75.096;2022-12-07T03:59:13;3.10;99.90
15107;DHT22;7654;45.308;-75.096;2022-12-07T04:01:44;3.10;99.90
15107;DHT22;7654;45.308;-75.096;2022-12-07T04:04:17;3.10;99.90
15107;DHT22;7654;45.308;-75.096;2022-12-07T04:06:47;3.20;99.90
15107;DHT22;7654;45.308;-75.096;2022-12-07T04:09:17;3.20;99.90
15107;DHT22;7654;45.308;-75.096;2022-12-07T04:11:48;3.20;99.90
15107;DHT22;7654;45.308;-75.096;2022-12-07T04:14:18;3.20;99.90
15107;DHT22;7654;45.308;-75.096;2022-12-07T04:16:49;3.20;99.90
15107;DHT22;7654;45.308;-75.096;2022-12-07T04:19:22;3.20;99.90
15107;DHT22;7654;45.308;-75.096;2022-12-07T04:21:53;3.20;99.90
15107;DHT22;7654;45.308;-75.096;2022-12-07T04:24:24;3.20;99.90
15107;DHT22;7654;45.308;-75.096;2022-12-07T04:26:54;3.30;99.90
15107;DHT22;7654;45.308;-75.096;2022-12-07T04:29:25;3.30;99.90
15107;DHT22;7654;45.308;-75.096;2022-12-07T04:31:56;3.20;99.90
15107;DHT22;7654;45.308;-75.096;2022-12-07T04:34:28;3.30;99.90
15107;DHT22;7654;45.308;-75.096;2022-12-07T04:36:58;3.30;99.90
15107;DHT22;7654;45.308;-75.096;2022-12-07T04:39:29;3.30;99.90
15107;DHT22;7654;45.308;-75.096;2022-12-07T04:42:01;3.30;99.90
15107;DHT22;7654;45.308;-75.096;2022-12-07T04:44:39;3.30;99.90
15107;DHT22;7654;45.308;-75.096;2022-12-07T04:47:09;3.30;99.90
15107;DHT22;7654;45.308;-75.096;2022-12-07T04:49:41;3.30;99.90
15107;DHT22;7654;45.308;-75.096;2022-12-07T04:52:11;3.30;99.90
15107;DHT22;7654;45.308;-75.096;2022-12-07T04:54:41;3.30;99.90
15107;DHT22;7654;45.308;-75.096;2022-12-07T04:57:11;3.30;99.90
15107;DHT22;7654;45.308;-75.096;2022-12-07T04:59:42;3.30;99.90
15107;DHT22;7654;45.308;-75.096;2022-12-07T05:02:12;3.30;99.90
15107;DHT22;7654;45.308;-75.096;2022-12-07T05:04:44;3.40;99.90
15107;DHT22;7654;45.308;-75.096;2022-12-07T05:07:14;3.40;99.90
15107;DHT22;7654;45.308;-75.096;2022-12-07T05:09:44;3.40;99.90
15107;DHT22;7654;45.308;-75.096;2022-12-07T05:12:15;3.40;99.90
15107;DHT22;7654;45.308;-75.096;2022-12-07T05:14:45;3.40;99.90
15107;DHT22;7654;45.308;-75.096;2022-12-07T05:17:15;3.40;99.90
15107;DHT22;7654;45.308;-75.096;2022-12-07T05:19:46;3.40;99.90
15107;DHT22;7654;45.308;-75.096;2022-12-07T05:22:16;3.40;99.90
15107;DHT22;7654;45.308;-75.096;2022-12-07T05:24:46;3.40;99.90
15107;DHT22;7654;45.308;-75.096;2022-12-07T05:27:17;3.40;99.90
15107;DHT22;7654;45.308;-75.096;2022-12-07T05:29:47;3.50;99.90
15107;DHT22;7654;45.308;-75.096;2022-12-07T05:32:17;3.50;99.90
15107;DHT22;7654;45.308;-75.096;2022-12-07T05:34:49;3.50;99.90
15107;DHT22;7654;45.308;-75.096;2022-12-07T05:37:19;3.50;99.90
15107;DHT22;7654;45.308;-75.096;2022-12-07T05:39:50;3.50;99.90
15107;DHT22;7654;45.308;-75.096;2022-12-07T05:42:20;3.50;99.90
15107;DHT22;7654;45.308;-75.096;2022-12-07T05:44:50;3.50;99.90
15107;DHT22;7654;45.308;-75.096;2022-12-07T05:47:20;3.50;99.90
15107;DHT22;7654;45.308;-75.096;2022-12-07T05:49:52;3.50;99.90
15107;DHT22;7654;45.308;-75.096;2022-12-07T05:52:23;3.50;99.90
15107;DHT22;7654;45.308;-75.096;2022-12-07T05:54:54;3.50;99.90
15107;DHT22;7654;45.308;-75.096;2022-12-07T05:57:24;3.50;99.90
15107;DHT22;7654;45.308;-75.096;2022-12-07T05:59:54;3.50;99.90
15107;DHT22;7654;45.308;-75.096;2022-12-07T06:02:22;3.60;99.90
15107;DHT22;7654;45.308;-75.096;2022-12-07T06:04:54;3.60;99.90
15107;DHT22;7654;45.308;-75.096;2022-12-07T06:07:25;3.60;99.90
15107;DHT22;7654;45.308;-75.096;2022-12-07T06:09:55;3.60;99.90
15107;DHT22;7654;45.308;-75.096;2022-12-07T06:12:25;3.60;99.90
15107;DHT22;7654;45.308;-75.096;2022-12-07T06:15:03;3.60;99.90
15107;DHT22;7654;45.308;-75.096;2022-12-07T06:17:34;3.60;99.90
15107;DHT22;7654;45.308;-75.096;2022-12-07T06:20:06;3.70;99.90
15107;DHT22;7654;45.308;-75.096;2022-12-07T06:22:37;3.70;99.90
15107;DHT22;7654;45.308;-75.096;2022-12-07T06:25:07;3.70;99.90
15107;DHT22;7654;45.308;-75.096;2022-12-07T06:27:38;3.70;99.90
15107;DHT22;7654;45.308;-75.096;2022-12-07T06:30:08;3.70;99.90
15107;DHT22;7654;45.308;-75.096;2022-12-07T06:32:39;3.70;99.90
15107;DHT22;7654;45.308;-75.096;2022-12-07T06:35:11;3.70;99.90
15107;DHT22;7654;45.308;-75.096;2022-12-07T06:37:41;3.80;99.90
15107;DHT22;7654;45.308;-75.096;2022-12-07T06:40:12;3.80;99.90
15107;DHT22;7654;45.308;-75.096;2022-12-07T06:42:42;3.80;99.90
15107;DHT22;7654;45.308;-75.096;2022-12-07T06:45:12;3.80;99.90
15107;DHT22;7654;45.308;-75.096;2022-12-07T06:47:42;3.80;99.90
15107;DHT22;7654;45.308;-75.096;2022-12-07T06:50:15;3.90;99.90
15107;DHT22;7654;45.308;-75.096;2022-12-07T06:52:45;3.90;99.90
15107;DHT22;7654;45.308;-75.096;2022-12-07T06:55:15;3.90;99.90
15107;DHT22;7654;45.308;-75.096;2022-12-07T06:57:45;3.90;99.90
15107;DHT22;7654;45.308;-75.096;2022-12-07T07:00:16;3.90;99.90
15107;DHT22;7654;45.308;-75.096;2022-12-07T07:02:49;3.90;99.90
15107;DHT22;7654;45.308;-75.096;2022-12-07T07:05:20;3.90;99.90
15107;DHT22;7654;45.308;-75.096;2022-12-07T07:07:51;3.90;99.90
15107;DHT22;7654;45.308;-75.096;2022-12-07T07:10:41;4.00;99.90
15107;DHT22;7654;45.308;-75.096;2022-12-07T07:13:11;4.00;99.90
15107;DHT22;7654;45.308;-75.096;2022-12-07T07:15:42;4.00;99.90
15107;DHT22;7654;45.308;-75.096;2022-12-07T07:18:12;4.00;99.90
15107;DHT22;7654;45.308;-75.096;2022-12-07T07:20:43;4.00;99.90
15107;DHT22;7654;45.308;-75.096;2022-12-07T07:23:14;4.00;99.90
15107;DHT22;7654;45.308;-75.096;2022-12-07T07:25:44;4.00;99.90
15107;DHT22;7654;45.308;-75.096;2022-12-07T07:28:15;4.00;99.90
15107;DHT22;7654;45.308;-75.096;2022-12-07T07:30:45;4.00;99.90
15107;DHT22;7654;45.308;-75.096;2022-12-07T07:33:17;4.10;99.90
15107;DHT22;7654;45.308;-75.096;2022-12-07T07:35:49;4.10;99.90
15107;DHT22;7654;45.308;-75.096;2022-12-07T07:38:19;4.10;99.90
15107;DHT22;7654;45.308;-75.096;2022-12-07T07:40:49;4.10;99.90
15107;DHT22;7654;45.308;-75.096;2022-12-07T07:43:19;4.10;99.90
15107;DHT22;7654;45.308;-75.096;2022-12-07T07:45:49;4.20;99.90
15107;DHT22;7654;45.308;-75.096;2022-12-07T07:48:19;4.20;99.90
15107;DHT22;7654;45.308;-75.096;2022-12-07T07:50:52;4.20;99.90
15107;DHT22;7654;45.308;-75.096;2022-12-07T07:53:22;4.20;99.90
15107;DHT22;7654;45.308;-75.096;2022-12-07T07:55:53;4.20;99.90
15107;DHT22;7654;45.308;-75.096;2022-12-07T07:58:23;4.20;99.90
15107;DHT22;7654;45.308;-75.096;2022-12-07T08:00:53;4.30;99.90
15107;DHT22;7654;45.308;-75.096;2022-12-07T08:03:24;4.30;99.90
15107;DHT22;7654;45.308;-75.096;2022-12-07T08:05:56;4.30;99.90
15107;DHT22;7654;45.308;-75.096;2022-12-07T08:08:26;4.30;99.90
15107;DHT22;7654;45.308;-75.096;2022-12-07T08:10:57;4.30;99.90
15107;DHT22;7654;45.308;-75.096;2022-12-07T08:13:29;4.30;99.90
15107;DHT22;7654;45.308;-75.096;2022-12-07T08:16:04;4.30;99.90
15107;DHT22;7654;45.308;-75.096;2022-12-07T08:18:35;4.30;99.90
15107;DHT22;7654;45.308;-75.096;2022-12-07T08:21:10;4.40;99.90
15107;DHT22;7654;45.308;-75.096;2022-12-07T08:23:41;4.40;99.90
15107;DHT22;7654;45.308;-75.096;2022-12-07T08:26:13;4.40;99.90
15107;DHT22;7654;45.308;-75.096;2022-12-07T08:28:43;4.40;99.90
15107;DHT22;7654;45.308;-75.096;2022-12-07T08:31:16;4.40;99.90
15107;DHT22;7654;45.308;-75.096;2022-12-07T08:33:47;4.40;99.90
15107;DHT22;7654;45.308;-75.096;2022-12-07T08:36:19;4.40;99.90
15107;DHT22;7654;45.308;-75.096;2022-12-07T08:38:50;4.40;99.90
15107;DHT22;7654;45.308;-75.096;2022-12-07T08:41:40;4.40;99.90
15107;DHT22;7654;45.308;-75.096;2022-12-07T08:44:11;4.40;99.90
15107;DHT22;7654;45.308;-75.096;2022-12-07T08:46:44;4.40;99.90
15107;DHT22;7654;45.308;-75.096;2022-12-07T08:49:18;4.50;99.90
15107;DHT22;7654;45.308;-75.096;2022-12-07T08:51:51;4.50;99.90
15107;DHT22;7654;45.308;-75.096;2022-12-07T08:54:22;4.40;99.90
15107;DHT22;7654;45.308;-75.096;2022-12-07T08:56:54;4.50;99.90
15107;DHT22;7654;45.308;-75.096;2022-12-07T08:59:26;4.50;99.90
15107;DHT22;7654;45.308;-75.096;2022-12-07T09:01:57;4.50;99.90
15107;DHT22;7654;45.308;-75.096;2022-12-07T09:04:27;4.50;99.90
15107;DHT22;7654;45.308;-75.096;2022-12-07T09:06:59;4.50;99.90
15107;DHT22;7654;45.308;-75.096;2022-12-07T09:09:29;4.50;99.90
15107;DHT22;7654;45.308;-75.096;2022-12-07T09:11:59;4.50;99.90
15107;DHT22;7654;45.308;-75.096;2022-12-07T09:14:29;4.50;99.90
15107;DHT22;7654;45.308;-75.096;2022-12-07T09:17:06;4.50;99.90
15107;DHT22;7654;45.308;-75.096;2022-12-07T09:19:37;4.60;99.90
15107;DHT22;7654;45.308;-75.096;2022-12-07T09:22:09;4.60;99.90
15107;DHT22;7654;45.308;-75.096;2022-12-07T09:24:39;4.60;99.90
15107;DHT22;7654;45.308;-75.096;2022-12-07T09:27:09;4.60;99.90
15107;DHT22;7654;45.308;-75.096;2022-12-07T09:29:39;4.50;99.90
15107;DHT22;7654;45.308;-75.096;2022-12-07T09:32:10;4.60;99.90
15107;DHT22;7654;45.308;-75.096;2022-12-07T09:34:40;4.60;99.90
15107;DHT22;7654;45.308;-75.096;2022-12-07T09:37:12;4.60;99.90
15107;DHT22;7654;45.308;-75.096;2022-12-07T09:39:42;4.60;99.90
15107;DHT22;7654;45.308;-75.096;2022-12-07T09:42:27;4.60;99.90
15107;DHT22;7654;45.308;-75.096;2022-12-07T09:44:58;4.60;99.90
15107;DHT22;7654;45.308;-75.096;2022-12-07T09:47:29;4.60;99.90
15107;DHT22;7654;45.308;-75.096;2022-12-07T09:50:05;4.60;99.90
15107;DHT22;7654;45.308;-75.096;2022-12-07T09:52:39;4.60;99.90
15107;DHT22;7654;45.308;-75.096;2022-12-07T09:55:11;4.60;99.90
15107;DHT22;7654;45.308;-75.096;2022-12-07T09:57:42;4.60;99.90
15107;DHT22;7654;45.308;-75.096;2022-12-07T10:00:15;4.60;99.90
15107;DHT22;7654;45.308;-75.096;2022-12-07T10:02:47;4.60;99.90
15107;DHT22;7654;45.308;-75.096;2022-12-07T10:05:22;4.70;99.90
15107;DHT22;7654;45.308;-75.096;2022-12-07T10:07:55;4.70;99.90
15107;DHT22;7654;45.308;-75.096;2022-12-07T10:10:29;4.60;99.90
15107;DHT22;7654;45.308;-75.096;2022-12-07T10:13:06;4.70;99.90
15107;DHT22;7654;45.308;-75.096;2022-12-07T10:15:46;4.70;99.90
15107;DHT22;7654;45.308;-75.096;2022-12-07T10:18:30;4.70;99.90
15107;DHT22;7654;45.308;-75.096;2022-12-07T10:21:09;4.70;99.90
15107;DHT22;7654;45.308;-75.096;2022-12-07T10:23:58;4.60;99.90
15107;DHT22;7654;45.308;-75.096;2022-12-07T10:26:33;4.60;99.90
15107;DHT22;7654;45.308;-75.096;2022-12-07T10:29:14;4.70;99.90
15107;DHT22;7654;45.308;-75.096;2022-12-07T10:31:51;4.70;99.90
15107;DHT22;7654;45.308;-75.096;2022-12-07T10:34:24;4.70;99.90
15107;DHT22;7654;45.308;-75.096;2022-12-07T10:37:13;4.70;99.90
15107;DHT22;7654;45.308;-75.096;2022-12-07T10:39:47;4.70;99.90
15107;DHT22;7654;45.308;-75.096;2022-12-07T10:42:20;4.80;99.90
15107;DHT22;7654;45.308;-75.096;2022-12-07T10:45:06;4.80;99.90
15107;DHT22;7654;45.308;-75.096;2022-12-07T10:47:44;4.80;99.90
15107;DHT22;7654;45.308;-75.096;2022-12-07T10:50:32;4.80;99.90
15107;DHT22;7654;45.308;-75.096;2022-12-07T10:53:21;4.80;99.90
15107;DHT22;7654;45.308;-75.096;2022-12-07T10:56:11;4.90;99.90
15107;DHT22;7654;45.308;-75.096;2022-12-07T10:58:56;4.90;99.90
15107;DHT22;7654;45.308;-75.096;2022-12-07T11:01:33;4.90;99.90
15107;DHT22;7654;45.308;-75.096;2022-12-07T11:04:18;4.90;99.90
15107;DHT22;7654;45.308;-75.096;2022-12-07T11:06:57;4.90;99.90
15107;DHT22;7654;45.308;-75.096;2022-12-07T11:09:56;4.90;99.90
15107;DHT22;7654;45.308;-75.096;2022-12-07T11:15:36;4.90;99.90
15107;DHT22;7654;45.308;-75.096;2022-12-07T11:18:15;4.90;99.90
15107;DHT22;7654;45.308;-75.096;2022-12-07T11:20:55;4.90;99.90
15107;DHT22;7654;45.308;-75.096;2022-12-07T11:23:46;4.90;99.90
15107;DHT22;7654;45.308;-75.096;2022-12-07T11:26:26;4.90;99.90
15107;DHT22;7654;45.308;-75.096;2022-12-07T11:32:08;5.00;99.90
15107;DHT22;7654;45.308;-75.096;2022-12-07T11:34:45;4.90;99.90
15107;DHT22;7654;45.308;-75.096;2022-12-07T11:37:20;4.90;99.90
15107;DHT22;7654;45.308;-75.096;2022-12-07T11:39:54;5.00;99.90
15107;DHT22;7654;45.308;-75.096;2022-12-07T11:42:29;5.10;99.90
15107;DHT22;7654;45.308;-75.096;2022-12-07T11:45:09;5.00;99.90
15107;DHT22;7654;45.308;-75.096;2022-12-07T11:47:46;5.00;99.90
15107;DHT22;7654;45.308;-75.096;2022-12-07T11:50:26;5.00;99.90
15107;DHT22;7654;45.308;-75.096;2022-12-07T11:52:59;5.00;99.90
15107;DHT22;7654;45.308;-75.096;2022-12-07T11:55:41;5.00;99.90
15107;DHT22;7654;45.308;-75.096;2022-12-07T11:58:36;5.00;99.90
15107;DHT22;7654;45.308;-75.096;2022-12-07T12:01:18;5.00;99.90
15107;DHT22;7654;45.308;-75.096;2022-12-07T12:03:56;5.00;99.90
15107;DHT22;7654;45.308;-75.096;2022-12-07T12:06:27;5.00;99.90
15107;DHT22;7654;45.308;-75.096;2022-12-07T12:09:04;5.00;99.90
15107;DHT22;7654;45.308;-75.096;2022-12-07T12:15:42;5.00;99.90
15107;DHT22;7654;45.308;-75.096;2022-12-07T12:18:43;4.90;99.90
15107;DHT22;7654;45.308;-75.096;2022-12-07T12:21:18;4.90;99.90
15107;DHT22;7654;45.308;-75.096;2022-12-07T12:23:53;4.90;99.90
15107;DHT22;7654;45.308;-75.096;2022-12-07T12:26:27;4.90;99.90
15107;DHT22;7654;45.308;-75.096;2022-12-07T12:28:59;4.90;99.90
15107;DHT22;7654;45.308;-75.096;2022-12-07T12:31:38;4.90;99.90
15107;DHT22;7654;45.308;-75.096;2022-12-07T12:34:33;4.90;99.90
15107;DHT22;7654;45.308;-75.096;2022-12-07T12:37:42;4.90;99.90
15107;DHT22;7654;45.308;-75.096;2022-12-07T12:40:38;5.00;99.90
15107;DHT22;7654;45.308;-75.096;2022-12-07T12:43:42;4.90;99.90
15107;DHT22;7654;45.308;-75.096;2022-12-07T12:46:38;4.90;99.90
15107;DHT22;7654;45.308;-75.096;2022-12-07T12:49:36;4.90;99.90
15107;DHT22;7654;45.308;-75.096;2022-12-07T12:55:20;5.00;99.90
15107;DHT22;7654;45.308;-75.096;2022-12-07T13:03:58;4.80;99.90
15107;DHT22;7654;45.308;-75.096;2022-12-07T13:06:37;4.80;99.90
15107;DHT22;7654;45.308;-75.096;2022-12-07T13:09:19;4.80;99.90
15107;DHT22;7654;45.308;-75.096;2022-12-07T13:11:57;4.80;99.90
15107;DHT22;7654;45.308;-75.096;2022-12-07T13:14:51;4.80;99.90
15107;DHT22;7654;45.308;-75.096;2022-12-07T13:17:56;4.90;99.90
15107;DHT22;7654;45.308;-75.096;2022-12-07T13:20:44;4.90;99.90
15107;DHT22;7654;45.308;-75.096;2022-12-07T13:23:22;4.90;99.90
15107;DHT22;7654;45.308;-75.096;2022-12-07T13:26:08;4.90;99.90
15107;DHT22;7654;45.308;-75.096;2022-12-07T13:28:46;4.90;99.90
15107;DHT22;7654;45.308;-75.096;2022-12-07T13:31:30;5.00;99.90
15107;DHT22;7654;45.308;-75.096;2022-12-07T13:34:01;5.00;99.90
15107;DHT22;7654;45.308;-75.096;2022-12-07T13:36:33;5.00;99.90
15107;DHT22;7654;45.308;-75.096;2022-12-07T13:39:19;4.90;99.90
15107;DHT22;7654;45.308;-75.096;2022-12-07T13:41:52;5.00;99.90
15107;DHT22;7654;45.308;-75.096;2022-12-07T13:44:24;5.00;99.90
15107;DHT22;7654;45.308;-75.096;2022-12-07T13:47:00;5.10;99.90
15107;DHT22;7654;45.308;-75.096;2022-12-07T13:49:36;5.10;99.90
15107;DHT22;7654;45.308;-75.096;2022-12-07T13:52:23;5.00;99.90
15107;DHT22;7654;45.308;-75.096;2022-12-07T13:54:58;5.00;99.90
15107;DHT22;7654;45.308;-75.096;2022-12-07T13:57:30;5.00;99.90
15107;DHT22;7654;45.308;-75.096;2022-12-07T14:00:05;5.00;99.90
15107;DHT22;7654;45.308;-75.096;2022-12-07T14:02:35;5.00;99.90
15107;DHT22;7654;45.308;-75.096;2022-12-07T14:05:15;5.00;99.90
15107;DHT22;7654;45.308;-75.096;2022-12-07T14:07:53;5.00;99.90
15107;DHT22;7654;45.308;-75.096;2022-12-07T14:10:27;5.00;99.90
15107;DHT22;7654;45.308;-75.096;2022-12-07T14:12:58;5.10;99.90
15107;DHT22;7654;45.308;-75.096;2022-12-07T14:15:30;5.10;99.90
15107;DHT22;7654;45.308;-75.096;2022-12-07T14:18:02;5.20;99.90
15107;DHT22;7654;45.308;-75.096;2022-12-07T14:20:34;5.20;99.90
15107;DHT22;7654;45.308;-75.096;2022-12-07T14:23:21;5.20;99.90
15107;DHT22;7654;45.308;-75.096;2022-12-07T14:25:54;5.20;99.90
15107;DHT22;7654;45.308;-75.096;2022-12-07T14:28:28;5.20;99.90
15107;DHT22;7654;45.308;-75.096;2022-12-07T14:30:59;5.20;99.90
15107;DHT22;7654;45.308;-75.096;2022-12-07T14:33:29;5.30;99.90
15107;DHT22;7654;45.308;-75.096;2022-12-07T14:36:00;5.30;99.90
15107;DHT22;7654;45.308;-75.096;2022-12-07T14:38:30;5.40;99.90
15107;DHT22;7654;45.308;-75.096;2022-12-07T14:41:02;5.40;99.90
15107;DHT22;7654;45.308;-75.096;2022-12-07T14:43:46;5.40;99.90
15107;DHT22;7654;45.308;-75.096;2022-12-07T14:46:36;5.50;99.90
15107;DHT22;7654;45.308;-75.096;2022-12-07T14:49:07;5.50;99.90
15107;DHT22;7654;45.308;-75.096;2022-12-07T14:51:58;5.50;99.90
15107;DHT22;7654;45.308;-75.096;2022-12-07T14:54:48;5.50;99.90
15107;DHT22;7654;45.308;-75.096;2022-12-07T14:57:20;5.50;99.90
15107;DHT22;7654;45.308;-75.096;2022-12-07T14:59:50;5.60;99.90
15107;DHT22;7654;45.308;-75.096;2022-12-07T15:02:20;5.60;99.90
15107;DHT22;7654;45.308;-75.096;2022-12-07T15:04:50;5.60;99.90
15107;DHT22;7654;45.308;-75.096;2022-12-07T15:07:21;5.60;99.90
15107;DHT22;7654;45.308;-75.096;2022-12-07T15:09:51;5.60;99.90
15107;DHT22;7654;45.308;-75.096;2022-12-07T15:12:24;5.60;99.90
15107;DHT22;7654;45.308;-75.096;2022-12-07T15:14:55;5.60;99.90
15107;DHT22;7654;45.308;-75.096;2022-12-07T15:17:25;5.60;99.90
15107;DHT22;7654;45.308;-75.096;2022-12-07T15:19:59;5.60;99.90
15107;DHT22;7654;45.308;-75.096;2022-12-07T15:22:29;5.60;99.90
15107;DHT22;7654;45.308;-75.096;2022-12-07T15:25:05;5.50;99.90
15107;DHT22;7654;45.308;-75.096;2022-12-07T15:27:37;5.50;99.90
15107;DHT22;7654;45.308;-75.096;2022-12-07T15:30:08;5.40;99.90
15107;DHT22;7654;45.308;-75.096;2022-12-07T15:32:38;5.40;99.90
15107;DHT22;7654;45.308;-75.096;2022-12-07T15:35:09;5.40;99.90
15107;DHT22;7654;45.308;-75.096;2022-12-07T15:37:39;5.50;99.90
15107;DHT22;7654;45.308;-75.096;2022-12-07T15:40:10;5.50;99.90
15107;DHT22;7654;45.308;-75.096;2022-12-07T15:42:42;5.60;99.90
15107;DHT22;7654;45.308;-75.096;2022-12-07T15:45:12;5.60;99.90
15107;DHT22;7654;45.308;-75.096;2022-12-07T15:47:43;5.60;99.90
15107;DHT22;7654;45.308;-75.096;2022-12-07T15:50:33;5.60;99.90
15107;DHT22;7654;45.308;-75.096;2022-12-07T15:53:03;5.70;99.90
15107;DHT22;7654;45.308;-75.096;2022-12-07T15:55:33;5.80;99.90
15107;DHT22;7654;45.308;-75.096;2022-12-07T15:58:05;5.90;99.90
15107;DHT22;7654;45.308;-75.096;2022-12-07T16:00:35;6.00;99.90
15107;DHT22;7654;45.308;-75.096;2022-12-07T16:03:05;6.10;99.90
15107;DHT22;7654;45.308;-75.096;2022-12-07T16:05:36;6.20;99.90
15107;DHT22;7654;45.308;-75.096;2022-12-07T16:08:06;6.30;99.90
15107;DHT22;7654;45.308;-75.096;2022-12-07T16:10:36;6.30;99.90
15107;DHT22;7654;45.308;-75.096;2022-12-07T16:13:08;6.30;99.90
15107;DHT22;7654;45.308;-75.096;2022-12-07T16:15:38;6.30;99.90
15107;DHT22;7654;45.308;-75.096;2022-12-07T16:18:09;6.30;99.90
15107;DHT22;7654;45.308;-75.096;2022-12-07T16:20:40;6.40;99.90
15107;DHT22;7654;45.308;-75.096;2022-12-07T16:23:11;6.40;99.90
15107;DHT22;7654;45.308;-75.096;2022-12-07T16:25:41;6.40;99.90
15107;DHT22;7654;45.308;-75.096;2022-12-07T16:28:13;6.40;99.90
15107;DHT22;7654;45.308;-75.096;2022-12-07T16:30:43;6.40;99.90
15107;DHT22;7654;45.308;-75.096;2022-12-07T16:33:13;6.50;99.90
15107;DHT22;7654;45.308;-75.096;2022-12-07T16:35:44;6.40;99.90